sensor_id;sensor_type;location;lat;lon;timestamp;P1;durP1;ratioP1;P2;durP2;ratioP2
10100;SDS011;5090;51.258;4.436;2023-05-17T00:01:06;14.00;;;5.20;;
10100;SDS011;5090;51.258;4.436;2023-05-17T00:03:34;18.70;;;5.73;;
10100;SDS011;5090;51.258;4.436;2023-05-17T00:06:02;12.93;;;4.83;;
10100;SDS011;5090;51.258;4.436;2023-05-17T00:08:30;14.00;;;4.93;;
10100;SDS011;5090;51.258;4.436;2023-05-17T00:10:58;10.80;;;5.07;;
10100;SDS011;5090;51.258;4.436;2023-05-17T00:13:27;16.83;;;5.63;;
10100;SDS011;5090;51.258;4.436;2023-05-17T00:15:55;13.50;;;5.37;;
10100;SDS011;5090;51.258;4.436;2023-05-17T00:18:23;16.23;;;5.33;;
10100;SDS011;5090;51.258;4.436;2023-05-17T00:20:52;14.73;;;5.27;;
10100;SDS011;5090;51.258;4.436;2023-05-17T00:23:20;14.37;;;5.93;;
10100;SDS011;5090;51.258;4.436;2023-05-17T00:25:49;14.03;;;5.70;;
10100;SDS011;5090;51.258;4.436;2023-05-17T00:28:17;11.63;;;4.83;;
10100;SDS011;5090;51.258;4.436;2023-05-17T00:30:45;11.23;;;5.37;;
10100;SDS011;5090;51.258;4.436;2023-05-17T00:33:13;9.77;;;5.60;;
10100;SDS011;5090;51.258;4.436;2023-05-17T00:35:41;13.73;;;5.67;;
10100;SDS011;5090;51.258;4.436;2023-05-17T00:38:09;11.83;;;5.63;;
10100;SDS011;5090;51.258;4.436;2023-05-17T00:40:38;15.77;;;5.60;;
10100;SDS011;5090;51.258;4.436;2023-05-17T00:43:06;9.57;;;5.40;;
10100;SDS011;5090;51.258;4.436;2023-05-17T00:45:34;17.67;;;6.20;;
10100;SDS011;5090;51.258;4.436;2023-05-17T00:48:02;13.93;;;5.10;;
10100;SDS011;5090;51.258;4.436;2023-05-17T00:50:30;14.53;;;5.30;;
10100;SDS011;5090;51.258;4.436;2023-05-17T00:52:59;12.53;;;5.27;;
10100;SDS011;5090;51.258;4.436;2023-05-17T00:55:27;14.60;;;5.37;;
10100;SDS011;5090;51.258;4.436;2023-05-17T00:57:55;15.23;;;6.37;;
10100;SDS011;5090;51.258;4.436;2023-05-17T01:00:23;12.23;;;5.87;;
10100;SDS011;5090;51.258;4.436;2023-05-17T01:02:51;15.00;;;5.90;;
10100;SDS011;5090;51.258;4.436;2023-05-17T01:05:20;12.77;;;5.50;;
10100;SDS011;5090;51.258;4.436;2023-05-17T01:07:48;16.43;;;6.37;;
10100;SDS011;5090;51.258;4.436;2023-05-17T01:10:16;12.53;;;6.00;;
10100;SDS011;5090;51.258;4.436;2023-05-17T01:12:54;21.87;;;6.07;;
10100;SDS011;5090;51.258;4.436;2023-05-17T01:15:21;13.53;;;5.93;;
10100;SDS011;5090;51.258;4.436;2023-05-17T01:18:22;14.80;;;6.10;;
10100;SDS011;5090;51.258;4.436;2023-05-17T01:20:35;17.30;;;5.63;;
10100;SDS011;5090;51.258;4.436;2023-05-17T01:23:23;14.40;;;5.83;;
10100;SDS011;5090;51.258;4.436;2023-05-17T01:25:51;21.20;;;5.77;;
10100;SDS011;5090;51.258;4.436;2023-05-17T01:28:16;15.50;;;6.00;;
10100;SDS011;5090;51.258;4.436;2023-05-17T01:30:45;15.70;;;5.97;;
10100;SDS011;5090;51.258;4.436;2023-05-17T01:33:13;11.07;;;5.60;;
10100;SDS011;5090;51.258;4.436;2023-05-17T01:35:41;16.60;;;6.13;;
10100;SDS011;5090;51.258;4.436;2023-05-17T01:38:09;15.57;;;7.00;;
10100;SDS011;5090;51.258;4.436;2023-05-17T01:40:39;15.03;;;5.77;;
10100;SDS011;5090;51.258;4.436;2023-05-17T01:43:09;17.47;;;6.50;;
10100;SDS011;5090;51.258;4.436;2023-05-17T01:45:38;17.67;;;6.10;;
10100;SDS011;5090;51.258;4.436;2023-05-17T01:48:11;11.13;;;5.77;;
10100;SDS011;5090;51.258;4.436;2023-05-17T01:50:33;18.20;;;6.60;;
10100;SDS011;5090;51.258;4.436;2023-05-17T01:53:04;12.70;;;6.60;;
10100;SDS011;5090;51.258;4.436;2023-05-17T01:55:33;14.13;;;6.77;;
10100;SDS011;5090;51.258;4.436;2023-05-17T01:57:58;14.20;;;6.43;;
10100;SDS011;5090;51.258;4.436;2023-05-17T02:00:26;13.47;;;6.80;;
10100;SDS011;5090;51.258;4.436;2023-05-17T02:02:55;13.67;;;6.50;;
10100;SDS011;5090;51.258;4.436;2023-05-17T02:05:23;18.37;;;7.20;;
10100;SDS011;5090;51.258;4.436;2023-05-17T02:07:51;15.77;;;7.17;;
10100;SDS011;5090;51.258;4.436;2023-05-17T02:10:19;12.30;;;7.00;;
10100;SDS011;5090;51.258;4.436;2023-05-17T02:12:47;17.60;;;6.87;;
10100;SDS011;5090;51.258;4.436;2023-05-17T02:15:16;13.27;;;6.93;;
10100;SDS011;5090;51.258;4.436;2023-05-17T02:17:44;15.90;;;6.77;;
10100;SDS011;5090;51.258;4.436;2023-05-17T02:20:12;14.60;;;7.50;;
10100;SDS011;5090;51.258;4.436;2023-05-17T02:22:40;16.57;;;6.77;;
10100;SDS011;5090;51.258;4.436;2023-05-17T02:25:08;12.77;;;7.03;;
10100;SDS011;5090;51.258;4.436;2023-05-17T02:27:37;20.13;;;7.27;;
10100;SDS011;5090;51.258;4.436;2023-05-17T02:30:05;17.37;;;7.23;;
10100;SDS011;5090;51.258;4.436;2023-05-17T02:32:33;10.83;;;6.20;;
10100;SDS011;5090;51.258;4.436;2023-05-17T02:35:03;13.17;;;6.93;;
10100;SDS011;5090;51.258;4.436;2023-05-17T02:37:31;18.10;;;7.40;;
10100;SDS011;5090;51.258;4.436;2023-05-17T02:39:59;11.67;;;6.20;;
10100;SDS011;5090;51.258;4.436;2023-05-17T02:42:28;14.87;;;7.47;;
10100;SDS011;5090;51.258;4.436;2023-05-17T02:44:56;13.67;;;7.37;;
10100;SDS011;5090;51.258;4.436;2023-05-17T02:47:24;13.77;;;7.07;;
10100;SDS011;5090;51.258;4.436;2023-05-17T02:49:52;18.93;;;7.53;;
10100;SDS011;5090;51.258;4.436;2023-05-17T02:52:20;17.30;;;7.70;;
10100;SDS011;5090;51.258;4.436;2023-05-17T02:54:49;11.57;;;7.57;;
10100;SDS011;5090;51.258;4.436;2023-05-17T02:57:17;16.20;;;6.93;;
10100;SDS011;5090;51.258;4.436;2023-05-17T02:59:45;16.17;;;7.90;;
10100;SDS011;5090;51.258;4.436;2023-05-17T03:02:13;19.40;;;7.57;;
10100;SDS011;5090;51.258;4.436;2023-05-17T03:04:42;17.27;;;7.67;;
10100;SDS011;5090;51.258;4.436;2023-05-17T03:07:10;18.60;;;7.70;;
10100;SDS011;5090;51.258;4.436;2023-05-17T03:09:38;21.80;;;7.93;;
10100;SDS011;5090;51.258;4.436;2023-05-17T03:12:07;17.80;;;8.00;;
10100;SDS011;5090;51.258;4.436;2023-05-17T03:14:35;19.37;;;8.07;;
10100;SDS011;5090;51.258;4.436;2023-05-17T03:17:03;18.27;;;7.43;;
10100;SDS011;5090;51.258;4.436;2023-05-17T03:19:31;27.67;;;8.43;;
10100;SDS011;5090;51.258;4.436;2023-05-17T03:22:00;17.20;;;8.37;;
10100;SDS011;5090;51.258;4.436;2023-05-17T03:24:28;14.93;;;7.93;;
10100;SDS011;5090;51.258;4.436;2023-05-17T03:26:56;16.93;;;8.30;;
10100;SDS011;5090;51.258;4.436;2023-05-17T03:29:24;16.07;;;8.17;;
10100;SDS011;5090;51.258;4.436;2023-05-17T03:31:53;16.77;;;8.13;;
10100;SDS011;5090;51.258;4.436;2023-05-17T03:34:21;21.83;;;7.93;;
10100;SDS011;5090;51.258;4.436;2023-05-17T03:36:49;21.87;;;8.50;;
10100;SDS011;5090;51.258;4.436;2023-05-17T03:39:17;16.60;;;7.90;;
10100;SDS011;5090;51.258;4.436;2023-05-17T03:41:45;18.77;;;8.03;;
10100;SDS011;5090;51.258;4.436;2023-05-17T03:44:14;17.27;;;7.77;;
10100;SDS011;5090;51.258;4.436;2023-05-17T03:46:42;19.73;;;7.20;;
10100;SDS011;5090;51.258;4.436;2023-05-17T03:49:10;25.07;;;7.73;;
10100;SDS011;5090;51.258;4.436;2023-05-17T03:51:38;19.60;;;8.03;;
10100;SDS011;5090;51.258;4.436;2023-05-17T03:54:06;19.03;;;7.63;;
10100;SDS011;5090;51.258;4.436;2023-05-17T03:56:34;15.03;;;7.07;;
10100;SDS011;5090;51.258;4.436;2023-05-17T03:59:03;17.27;;;7.50;;
10100;SDS011;5090;51.258;4.436;2023-05-17T04:01:32;16.97;;;6.47;;
10100;SDS011;5090;51.258;4.436;2023-05-17T04:03:59;15.53;;;6.77;;
10100;SDS011;5090;51.258;4.436;2023-05-17T04:06:28;25.03;;;7.03;;
10100;SDS011;5090;51.258;4.436;2023-05-17T04:08:56;13.30;;;7.23;;
10100;SDS011;5090;51.258;4.436;2023-05-17T04:11:24;18.37;;;6.70;;
10100;SDS011;5090;51.258;4.436;2023-05-17T04:13:53;19.70;;;7.20;;
10100;SDS011;5090;51.258;4.436;2023-05-17T04:16:21;17.17;;;6.90;;
10100;SDS011;5090;51.258;4.436;2023-05-17T04:18:50;22.57;;;7.63;;
10100;SDS011;5090;51.258;4.436;2023-05-17T04:21:18;24.80;;;7.27;;
10100;SDS011;5090;51.258;4.436;2023-05-17T04:23:46;13.93;;;6.53;;
10100;SDS011;5090;51.258;4.436;2023-05-17T04:26:14;14.90;;;6.20;;
10100;SDS011;5090;51.258;4.436;2023-05-17T04:28:43;17.17;;;7.03;;
10100;SDS011;5090;51.258;4.436;2023-05-17T04:31:12;19.47;;;7.10;;
10100;SDS011;5090;51.258;4.436;2023-05-17T04:33:40;24.23;;;6.67;;
10100;SDS011;5090;51.258;4.436;2023-05-17T04:36:08;20.73;;;6.90;;
10100;SDS011;5090;51.258;4.436;2023-05-17T04:38:36;13.80;;;6.37;;
10100;SDS011;5090;51.258;4.436;2023-05-17T04:41:05;15.40;;;6.87;;
10100;SDS011;5090;51.258;4.436;2023-05-17T04:43:33;14.00;;;6.57;;
10100;SDS011;5090;51.258;4.436;2023-05-17T04:46:01;18.03;;;6.90;;
10100;SDS011;5090;51.258;4.436;2023-05-17T04:48:30;14.37;;;6.23;;
10100;SDS011;5090;51.258;4.436;2023-05-17T04:50:59;17.17;;;6.73;;
10100;SDS011;5090;51.258;4.436;2023-05-17T04:53:27;18.17;;;5.87;;
10100;SDS011;5090;51.258;4.436;2023-05-17T04:55:56;16.80;;;6.73;;
10100;SDS011;5090;51.258;4.436;2023-05-17T04:58:23;16.10;;;6.70;;
10100;SDS011;5090;51.258;4.436;2023-05-17T05:00:52;17.53;;;5.90;;
10100;SDS011;5090;51.258;4.436;2023-05-17T05:03:21;16.80;;;6.03;;
10100;SDS011;5090;51.258;4.436;2023-05-17T05:05:48;14.17;;;5.70;;
10100;SDS011;5090;51.258;4.436;2023-05-17T05:08:17;25.57;;;6.17;;
10100;SDS011;5090;51.258;4.436;2023-05-17T05:10:45;24.07;;;5.60;;
10100;SDS011;5090;51.258;4.436;2023-05-17T05:13:14;15.73;;;6.30;;
10100;SDS011;5090;51.258;4.436;2023-05-17T05:15:42;11.57;;;5.60;;
10100;SDS011;5090;51.258;4.436;2023-05-17T05:18:10;18.03;;;5.37;;
10100;SDS011;5090;51.258;4.436;2023-05-17T05:20:38;17.97;;;5.70;;
10100;SDS011;5090;51.258;4.436;2023-05-17T05:23:07;17.63;;;5.63;;
10100;SDS011;5090;51.258;4.436;2023-05-17T05:25:36;14.30;;;5.60;;
10100;SDS011;5090;51.258;4.436;2023-05-17T05:28:04;15.40;;;4.93;;
10100;SDS011;5090;51.258;4.436;2023-05-17T05:30:32;12.60;;;5.40;;
10100;SDS011;5090;51.258;4.436;2023-05-17T05:33:00;16.20;;;5.90;;
10100;SDS011;5090;51.258;4.436;2023-05-17T05:35:29;13.03;;;5.67;;
10100;SDS011;5090;51.258;4.436;2023-05-17T05:37:57;13.50;;;5.07;;
10100;SDS011;5090;51.258;4.436;2023-05-17T05:40:25;16.03;;;5.37;;
10100;SDS011;5090;51.258;4.436;2023-05-17T05:42:53;17.30;;;5.47;;
10100;SDS011;5090;51.258;4.436;2023-05-17T05:45:21;12.97;;;5.10;;
10100;SDS011;5090;51.258;4.436;2023-05-17T05:47:51;18.53;;;5.20;;
10100;SDS011;5090;51.258;4.436;2023-05-17T05:50:20;17.97;;;4.90;;
10100;SDS011;5090;51.258;4.436;2023-05-17T05:52:48;18.13;;;5.03;;
10100;SDS011;5090;51.258;4.436;2023-05-17T05:55:17;12.47;;;5.00;;
10100;SDS011;5090;51.258;4.436;2023-05-17T05:57:46;13.07;;;4.57;;
10100;SDS011;5090;51.258;4.436;2023-05-17T06:00:14;15.63;;;4.70;;
10100;SDS011;5090;51.258;4.436;2023-05-17T06:02:43;17.10;;;4.33;;
10100;SDS011;5090;51.258;4.436;2023-05-17T06:05:11;12.33;;;4.30;;
10100;SDS011;5090;51.258;4.436;2023-05-17T06:07:40;14.03;;;4.17;;
10100;SDS011;5090;51.258;4.436;2023-05-17T06:10:09;14.27;;;4.70;;
10100;SDS011;5090;51.258;4.436;2023-05-17T06:12:38;12.03;;;4.53;;
10100;SDS011;5090;51.258;4.436;2023-05-17T06:15:06;19.20;;;5.33;;
10100;SDS011;5090;51.258;4.436;2023-05-17T06:17:35;18.23;;;4.70;;
10100;SDS011;5090;51.258;4.436;2023-05-17T06:20:04;18.17;;;5.53;;
10100;SDS011;5090;51.258;4.436;2023-05-17T06:22:32;13.00;;;4.62;;
10100;SDS011;5090;51.258;4.436;2023-05-17T06:25:00;23.95;;;4.57;;
10100;SDS011;5090;51.258;4.436;2023-05-17T06:27:30;10.50;;;3.60;;
10100;SDS011;5090;51.258;4.436;2023-05-17T06:29:57;12.27;;;4.20;;
10100;SDS011;5090;51.258;4.436;2023-05-17T06:32:26;14.38;;;3.33;;
10100;SDS011;5090;51.258;4.436;2023-05-17T06:34:54;12.95;;;3.40;;
10100;SDS011;5090;51.258;4.436;2023-05-17T06:37:22;11.88;;;3.30;;
10100;SDS011;5090;51.258;4.436;2023-05-17T06:39:50;9.75;;;3.42;;
10100;SDS011;5090;51.258;4.436;2023-05-17T06:42:18;12.68;;;2.95;;
10100;SDS011;5090;51.258;4.436;2023-05-17T06:44:47;11.15;;;3.37;;
10100;SDS011;5090;51.258;4.436;2023-05-17T06:47:15;17.75;;;3.70;;
10100;SDS011;5090;51.258;4.436;2023-05-17T06:49:43;11.40;;;3.60;;
10100;SDS011;5090;51.258;4.436;2023-05-17T06:52:11;11.82;;;2.90;;
10100;SDS011;5090;51.258;4.436;2023-05-17T06:54:40;11.23;;;2.80;;
10100;SDS011;5090;51.258;4.436;2023-05-17T06:57:08;11.95;;;3.15;;
10100;SDS011;5090;51.258;4.436;2023-05-17T06:59:36;10.55;;;3.03;;
10100;SDS011;5090;51.258;4.436;2023-05-17T07:02:05;13.23;;;3.03;;
10100;SDS011;5090;51.258;4.436;2023-05-17T07:04:33;7.90;;;3.08;;
10100;SDS011;5090;51.258;4.436;2023-05-17T07:07:01;7.85;;;2.28;;
10100;SDS011;5090;51.258;4.436;2023-05-17T07:09:29;7.68;;;2.80;;
10100;SDS011;5090;51.258;4.436;2023-05-17T07:11:57;11.40;;;3.30;;
10100;SDS011;5090;51.258;4.436;2023-05-17T07:14:25;10.15;;;3.75;;
10100;SDS011;5090;51.258;4.436;2023-05-17T07:16:53;11.80;;;2.67;;
10100;SDS011;5090;51.258;4.436;2023-05-17T07:19:22;7.07;;;2.70;;
10100;SDS011;5090;51.258;4.436;2023-05-17T07:21:51;11.55;;;2.70;;
10100;SDS011;5090;51.258;4.436;2023-05-17T07:24:20;10.88;;;2.55;;
10100;SDS011;5090;51.258;4.436;2023-05-17T07:26:48;6.15;;;2.42;;
10100;SDS011;5090;51.258;4.436;2023-05-17T07:29:16;7.97;;;2.28;;
10100;SDS011;5090;51.258;4.436;2023-05-17T07:31:44;11.68;;;2.60;;
10100;SDS011;5090;51.258;4.436;2023-05-17T07:34:12;10.50;;;2.78;;
10100;SDS011;5090;51.258;4.436;2023-05-17T07:36:41;6.68;;;2.33;;
10100;SDS011;5090;51.258;4.436;2023-05-17T07:39:09;6.00;;;2.30;;
10100;SDS011;5090;51.258;4.436;2023-05-17T07:41:37;7.90;;;1.58;;
10100;SDS011;5090;51.258;4.436;2023-05-17T07:44:05;3.97;;;1.62;;
10100;SDS011;5090;51.258;4.436;2023-05-17T07:46:33;6.15;;;1.75;;
10100;SDS011;5090;51.258;4.436;2023-05-17T07:49:02;7.32;;;2.15;;
10100;SDS011;5090;51.258;4.436;2023-05-17T07:51:30;6.05;;;2.00;;
10100;SDS011;5090;51.258;4.436;2023-05-17T07:53:58;3.08;;;1.45;;
10100;SDS011;5090;51.258;4.436;2023-05-17T07:56:28;8.40;;;1.80;;
10100;SDS011;5090;51.258;4.436;2023-05-17T07:58:56;7.60;;;1.92;;
10100;SDS011;5090;51.258;4.436;2023-05-17T08:01:24;7.07;;;2.92;;
10100;SDS011;5090;51.258;4.436;2023-05-17T08:03:52;6.43;;;2.60;;
10100;SDS011;5090;51.258;4.436;2023-05-17T08:06:20;6.95;;;2.22;;
10100;SDS011;5090;51.258;4.436;2023-05-17T08:08:49;6.72;;;2.10;;
10100;SDS011;5090;51.258;4.436;2023-05-17T08:11:17;10.50;;;2.60;;
10100;SDS011;5090;51.258;4.436;2023-05-17T08:13:45;8.32;;;2.53;;
10100;SDS011;5090;51.258;4.436;2023-05-17T08:16:13;8.75;;;2.60;;
10100;SDS011;5090;51.258;4.436;2023-05-17T08:18:41;5.80;;;2.20;;
10100;SDS011;5090;51.258;4.436;2023-05-17T08:21:09;6.40;;;2.22;;
10100;SDS011;5090;51.258;4.436;2023-05-17T08:23:39;6.82;;;2.10;;
10100;SDS011;5090;51.258;4.436;2023-05-17T08:26:06;6.82;;;2.10;;
10100;SDS011;5090;51.258;4.436;2023-05-17T08:28:34;13.57;;;2.50;;
10100;SDS011;5090;51.258;4.436;2023-05-17T08:31:03;8.43;;;2.12;;
10100;SDS011;5090;51.258;4.436;2023-05-17T08:33:31;9.60;;;2.80;;
10100;SDS011;5090;51.258;4.436;2023-05-17T08:35:59;6.22;;;1.83;;
10100;SDS011;5090;51.258;4.436;2023-05-17T08:38:27;6.40;;;1.90;;
10100;SDS011;5090;51.258;4.436;2023-05-17T08:40:56;9.80;;;2.25;;
10100;SDS011;5090;51.258;4.436;2023-05-17T08:43:24;7.35;;;1.90;;
10100;SDS011;5090;51.258;4.436;2023-05-17T08:45:52;9.20;;;2.25;;
10100;SDS011;5090;51.258;4.436;2023-05-17T08:48:21;7.20;;;1.80;;
10100;SDS011;5090;51.258;4.436;2023-05-17T08:50:49;10.25;;;2.03;;
10100;SDS011;5090;51.258;4.436;2023-05-17T08:53:17;11.18;;;2.30;;
10100;SDS011;5090;51.258;4.436;2023-05-17T08:55:46;8.90;;;2.00;;
10100;SDS011;5090;51.258;4.436;2023-05-17T08:58:18;9.10;;;2.05;;
10100;SDS011;5090;51.258;4.436;2023-05-17T09:00:45;8.65;;;2.17;;
10100;SDS011;5090;51.258;4.436;2023-05-17T09:03:14;6.50;;;1.80;;
10100;SDS011;5090;51.258;4.436;2023-05-17T09:05:41;7.45;;;2.22;;
10100;SDS011;5090;51.258;4.436;2023-05-17T09:08:09;10.75;;;2.42;;
10100;SDS011;5090;51.258;4.436;2023-05-17T09:10:39;8.68;;;2.10;;
10100;SDS011;5090;51.258;4.436;2023-05-17T09:13:06;12.65;;;2.42;;
10100;SDS011;5090;51.258;4.436;2023-05-17T09:15:35;7.95;;;1.90;;
10100;SDS011;5090;51.258;4.436;2023-05-17T09:18:03;7.47;;;1.80;;
10100;SDS011;5090;51.258;4.436;2023-05-17T09:20:31;10.98;;;2.20;;
10100;SDS011;5090;51.258;4.436;2023-05-17T09:23:01;7.65;;;1.65;;
10100;SDS011;5090;51.258;4.436;2023-05-17T09:25:29;8.98;;;3.12;;
10100;SDS011;5090;51.258;4.436;2023-05-17T09:28:00;7.22;;;1.75;;
10100;SDS011;5090;51.258;4.436;2023-05-17T09:30:28;8.98;;;2.17;;
10100;SDS011;5090;51.258;4.436;2023-05-17T09:32:56;11.40;;;2.20;;
10100;SDS011;5090;51.258;4.436;2023-05-17T09:35:27;11.00;;;1.95;;
10100;SDS011;5090;51.258;4.436;2023-05-17T09:37:56;8.55;;;1.87;;
10100;SDS011;5090;51.258;4.436;2023-05-17T09:40:24;11.63;;;2.25;;
10100;SDS011;5090;51.258;4.436;2023-05-17T09:42:52;9.60;;;1.67;;
10100;SDS011;5090;51.258;4.436;2023-05-17T09:45:21;6.25;;;1.90;;
10100;SDS011;5090;51.258;4.436;2023-05-17T09:47:50;6.28;;;1.98;;
10100;SDS011;5090;51.258;4.436;2023-05-17T09:50:19;6.93;;;1.70;;
10100;SDS011;5090;51.258;4.436;2023-05-17T09:52:47;8.85;;;1.77;;
10100;SDS011;5090;51.258;4.436;2023-05-17T09:55:15;8.30;;;1.95;;
10100;SDS011;5090;51.258;4.436;2023-05-17T09:57:44;9.20;;;2.42;;
10100;SDS011;5090;51.258;4.436;2023-05-17T10:00:12;7.78;;;2.20;;
10100;SDS011;5090;51.258;4.436;2023-05-17T10:02:41;8.32;;;1.90;;
10100;SDS011;5090;51.258;4.436;2023-05-17T10:05:10;8.88;;;1.95;;
10100;SDS011;5090;51.258;4.436;2023-05-17T10:07:37;9.50;;;2.37;;
10100;SDS011;5090;51.258;4.436;2023-05-17T10:10:09;10.43;;;2.03;;
10100;SDS011;5090;51.258;4.436;2023-05-17T10:12:37;11.90;;;2.20;;
10100;SDS011;5090;51.258;4.436;2023-05-17T10:15:09;7.55;;;1.90;;
10100;SDS011;5090;51.258;4.436;2023-05-17T10:17:38;8.35;;;2.05;;
10100;SDS011;5090;51.258;4.436;2023-05-17T10:20:08;8.02;;;1.70;;
10100;SDS011;5090;51.258;4.436;2023-05-17T10:22:39;5.97;;;2.05;;
10100;SDS011;5090;51.258;4.436;2023-05-17T10:25:08;5.25;;;1.58;;
10100;SDS011;5090;51.258;4.436;2023-05-17T10:27:36;4.43;;;1.40;;
10100;SDS011;5090;51.258;4.436;2023-05-17T10:30:05;7.22;;;2.40;;
10100;SDS011;5090;51.258;4.436;2023-05-17T10:32:34;6.20;;;1.95;;
10100;SDS011;5090;51.258;4.436;2023-05-17T10:35:03;8.35;;;5.10;;
10100;SDS011;5090;51.258;4.436;2023-05-17T10:37:33;6.85;;;3.50;;
10100;SDS011;5090;51.258;4.436;2023-05-17T10:40:01;6.07;;;1.67;;
10100;SDS011;5090;51.258;4.436;2023-05-17T10:42:30;5.45;;;2.42;;
10100;SDS011;5090;51.258;4.436;2023-05-17T10:44:59;8.40;;;2.42;;
10100;SDS011;5090;51.258;4.436;2023-05-17T10:47:31;11.23;;;3.70;;
10100;SDS011;5090;51.258;4.436;2023-05-17T10:49:59;6.15;;;3.95;;
10100;SDS011;5090;51.258;4.436;2023-05-17T10:52:30;4.28;;;1.27;;
10100;SDS011;5090;51.258;4.436;2023-05-17T10:54:59;4.03;;;1.30;;
10100;SDS011;5090;51.258;4.436;2023-05-17T10:57:32;8.32;;;1.83;;
10100;SDS011;5090;51.258;4.436;2023-05-17T11:00:05;5.50;;;1.73;;
10100;SDS011;5090;51.258;4.436;2023-05-17T11:02:34;6.05;;;1.20;;
10100;SDS011;5090;51.258;4.436;2023-05-17T11:05:03;9.27;;;1.77;;
10100;SDS011;5090;51.258;4.436;2023-05-17T11:07:31;5.10;;;1.30;;
10100;SDS011;5090;51.258;4.436;2023-05-17T11:12:44;5.05;;;1.50;;
10100;SDS011;5090;51.258;4.436;2023-05-17T11:15:13;2.85;;;1.10;;
10100;SDS011;5090;51.258;4.436;2023-05-17T11:23:01;2.97;;;1.03;;
10100;SDS011;5090;51.258;4.436;2023-05-17T11:25:37;4.35;;;1.62;;
10100;SDS011;5090;51.258;4.436;2023-05-17T11:28:06;4.13;;;1.20;;
10100;SDS011;5090;51.258;4.436;2023-05-17T11:30:42;8.53;;;1.77;;
10100;SDS011;5090;51.258;4.436;2023-05-17T11:33:11;5.43;;;1.27;;
10100;SDS011;5090;51.258;4.436;2023-05-17T11:35:41;3.67;;;1.40;;
10100;SDS011;5090;51.258;4.436;2023-05-17T11:38:12;6.23;;;1.43;;
10100;SDS011;5090;51.258;4.436;2023-05-17T11:40:41;6.30;;;1.40;;
10100;SDS011;5090;51.258;4.436;2023-05-17T11:43:12;7.63;;;1.17;;
10100;SDS011;5090;51.258;4.436;2023-05-17T11:48:24;4.60;;;1.77;;
10100;SDS011;5090;51.258;4.436;2023-05-17T11:50:54;7.73;;;1.40;;
10100;SDS011;5090;51.258;4.436;2023-05-17T11:53:24;3.23;;;1.13;;
10100;SDS011;5090;51.258;4.436;2023-05-17T11:58:49;5.43;;;1.40;;
10100;SDS011;5090;51.258;4.436;2023-05-17T12:04:27;3.93;;;0.97;;
10100;SDS011;5090;51.258;4.436;2023-05-17T12:06:55;4.20;;;1.10;;
10100;SDS011;5090;51.258;4.436;2023-05-17T12:09:31;3.00;;;1.00;;
10100;SDS011;5090;51.258;4.436;2023-05-17T12:12:02;3.33;;;1.20;;
10100;SDS011;5090;51.258;4.436;2023-05-17T12:14:32;7.80;;;1.23;;
10100;SDS011;5090;51.258;4.436;2023-05-17T12:17:02;5.33;;;1.47;;
10100;SDS011;5090;51.258;4.436;2023-05-17T12:19:29;4.83;;;1.50;;
10100;SDS011;5090;51.258;4.436;2023-05-17T12:24:40;5.27;;;1.33;;
10100;SDS011;5090;51.258;4.436;2023-05-17T12:27:11;3.40;;;0.90;;
10100;SDS011;5090;51.258;4.436;2023-05-17T12:29:39;2.17;;;1.10;;
10100;SDS011;5090;51.258;4.436;2023-05-17T12:32:08;5.30;;;1.17;;
10100;SDS011;5090;51.258;4.436;2023-05-17T12:34:41;4.77;;;1.33;;
10100;SDS011;5090;51.258;4.436;2023-05-17T12:40:15;3.57;;;1.13;;
10100;SDS011;5090;51.258;4.436;2023-05-17T12:42:46;4.33;;;1.57;;
10100;SDS011;5090;51.258;4.436;2023-05-17T12:45:14;5.33;;;1.53;;
10100;SDS011;5090;51.258;4.436;2023-05-17T12:47:42;7.03;;;1.75;;
10100;SDS011;5090;51.258;4.436;2023-05-17T12:50:11;4.78;;;1.50;;
10100;SDS011;5090;51.258;4.436;2023-05-17T12:52:39;7.33;;;1.50;;
10100;SDS011;5090;51.258;4.436;2023-05-17T12:55:11;3.80;;;1.33;;
10100;SDS011;5090;51.258;4.436;2023-05-17T12:57:36;4.93;;;1.40;;
10100;SDS011;5090;51.258;4.436;2023-05-17T13:00:05;7.10;;;1.10;;
10100;SDS011;5090;51.258;4.436;2023-05-17T13:02:34;6.33;;;1.60;;
10100;SDS011;5090;51.258;4.436;2023-05-17T13:07:39;5.93;;;1.40;;
10100;SDS011;5090;51.258;4.436;2023-05-17T13:12:42;9.90;;;1.37;;
10100;SDS011;5090;51.258;4.436;2023-05-17T13:15:10;4.50;;;1.40;;
10100;SDS011;5090;51.258;4.436;2023-05-17T13:17:39;4.53;;;1.27;;
10100;SDS011;5090;51.258;4.436;2023-05-17T13:20:07;5.80;;;1.47;;
10100;SDS011;5090;51.258;4.436;2023-05-17T13:22:39;7.37;;;1.43;;
10100;SDS011;5090;51.258;4.436;2023-05-17T13:25:05;6.00;;;1.30;;
10100;SDS011;5090;51.258;4.436;2023-05-17T13:27:34;6.73;;;1.20;;
10100;SDS011;5090;51.258;4.436;2023-05-17T13:30:02;7.87;;;1.60;;
10100;SDS011;5090;51.258;4.436;2023-05-17T13:32:30;5.53;;;1.33;;
10100;SDS011;5090;51.258;4.436;2023-05-17T13:34:59;4.50;;;1.20;;
10100;SDS011;5090;51.258;4.436;2023-05-17T13:37:27;6.00;;;1.30;;
10100;SDS011;5090;51.258;4.436;2023-05-17T13:39:58;3.57;;;1.23;;
10100;SDS011;5090;51.258;4.436;2023-05-17T13:42:26;5.80;;;1.30;;
10100;SDS011;5090;51.258;4.436;2023-05-17T13:44:55;5.27;;;1.40;;
10100;SDS011;5090;51.258;4.436;2023-05-17T13:47:25;4.23;;;1.17;;
10100;SDS011;5090;51.258;4.436;2023-05-17T13:49:53;4.87;;;1.27;;
10100;SDS011;5090;51.258;4.436;2023-05-17T13:52:22;5.77;;;1.50;;
10100;SDS011;5090;51.258;4.436;2023-05-17T13:54:51;6.87;;;1.27;;
10100;SDS011;5090;51.258;4.436;2023-05-17T13:57:19;6.13;;;1.50;;
10100;SDS011;5090;51.258;4.436;2023-05-17T13:59:47;5.77;;;1.10;;
10100;SDS011;5090;51.258;4.436;2023-05-17T14:02:16;4.50;;;1.47;;
10100;SDS011;5090;51.258;4.436;2023-05-17T14:04:48;10.60;;;1.70;;
10100;SDS011;5090;51.258;4.436;2023-05-17T14:07:18;4.40;;;1.70;;
10100;SDS011;5090;51.258;4.436;2023-05-17T14:09:46;5.57;;;1.43;;
10100;SDS011;5090;51.258;4.436;2023-05-17T14:12:15;3.50;;;1.10;;
10100;SDS011;5090;51.258;4.436;2023-05-17T14:14:44;4.23;;;1.60;;
10100;SDS011;5090;51.258;4.436;2023-05-17T14:17:12;6.83;;;1.60;;
10100;SDS011;5090;51.258;4.436;2023-05-17T14:19:42;6.70;;;1.30;;
10100;SDS011;5090;51.258;4.436;2023-05-17T14:22:10;4.60;;;1.43;;
10100;SDS011;5090;51.258;4.436;2023-05-17T14:24:39;5.20;;;1.53;;
10100;SDS011;5090;51.258;4.436;2023-05-17T14:27:08;3.83;;;1.47;;
10100;SDS011;5090;51.258;4.436;2023-05-17T14:29:37;7.03;;;1.50;;
10100;SDS011;5090;51.258;4.436;2023-05-17T14:32:07;5.57;;;1.30;;
10100;SDS011;5090;51.258;4.436;2023-05-17T14:34:35;6.50;;;1.10;;
10100;SDS011;5090;51.258;4.436;2023-05-17T14:37:04;4.37;;;1.40;;
10100;SDS011;5090;51.258;4.436;2023-05-17T14:39:32;5.23;;;1.30;;
10100;SDS011;5090;51.258;4.436;2023-05-17T14:42:00;6.67;;;1.50;;
10100;SDS011;5090;51.258;4.436;2023-05-17T14:44:30;6.13;;;1.47;;
10100;SDS011;5090;51.258;4.436;2023-05-17T14:46:59;2.97;;;1.30;;
10100;SDS011;5090;51.258;4.436;2023-05-17T14:49:27;6.57;;;1.53;;
10100;SDS011;5090;51.258;4.436;2023-05-17T14:51:56;5.13;;;1.60;;
10100;SDS011;5090;51.258;4.436;2023-05-17T14:54:25;5.20;;;1.20;;
10100;SDS011;5090;51.258;4.436;2023-05-17T14:56:53;8.10;;;1.60;;
10100;SDS011;5090;51.258;4.436;2023-05-17T14:59:21;5.40;;;1.63;;
10100;SDS011;5090;51.258;4.436;2023-05-17T15:01:53;6.60;;;1.90;;
10100;SDS011;5090;51.258;4.436;2023-05-17T15:04:29;4.50;;;1.17;;
10100;SDS011;5090;51.258;4.436;2023-05-17T15:06:58;6.73;;;1.70;;
10100;SDS011;5090;51.258;4.436;2023-05-17T15:09:26;7.57;;;1.53;;
10100;SDS011;5090;51.258;4.436;2023-05-17T15:11:55;6.23;;;1.40;;
10100;SDS011;5090;51.258;4.436;2023-05-17T15:14:23;2.73;;;1.30;;
10100;SDS011;5090;51.258;4.436;2023-05-17T15:16:53;2.67;;;1.30;;
10100;SDS011;5090;51.258;4.436;2023-05-17T15:19:33;6.60;;;1.40;;
10100;SDS011;5090;51.258;4.436;2023-05-17T15:22:02;4.20;;;1.40;;
10100;SDS011;5090;51.258;4.436;2023-05-17T15:24:35;7.57;;;1.57;;
10100;SDS011;5090;51.258;4.436;2023-05-17T15:27:04;4.40;;;1.43;;
10100;SDS011;5090;51.258;4.436;2023-05-17T15:29:32;5.10;;;1.23;;
10100;SDS011;5090;51.258;4.436;2023-05-17T15:32:00;5.60;;;1.27;;